Time;durP1;ratioP1;P1;durP2;ratioP2;P2;SDS_P1;SDS_P2;PMS_P1;PMS_P2;Temp;Humidity;BMP_temperature;BMP_pressure;BME280_temperature;BME280_humidity;BME280_pressure;Samples;Min_cycle;Max_cycle;Signal;HPM_P1;HPM_P2
2022/10/07 00:00:12;;;;;;;4.00;1.40;;;22.10;99.90;;;;;;4995527;28;20187;-76
2022/10/07 00:02:45;;;;;;;1.42;1.08;;;22.00;99.90;;;;;;4995933;28;20198;-74
2022/10/07 00:05:16;;;;;;;1.77;1.00;;;22.00;99.90;;;;;;4995655;28;20224;-74
2022/10/07 00:07:46;;;;;;;1.08;1.00;;;22.10;99.90;;;;;;4994847;28;20666;-75
2022/10/07 00:10:17;;;;;;;2.63;1.13;;;22.10;99.90;;;;;;4976613;28;20436;-74
2022/10/07 00:12:48;;;;;;;1.80;0.90;;;22.10;99.90;;;;;;4978365;28;20203;-73
2022/10/07 00:15:19;;;;;;;2.53;1.30;;;22.10;99.90;;;;;;4995039;28;20690;-73
2022/10/07 00:17:51;;;;;;;3.85;1.05;;;22.10;99.90;;;;;;4995078;28;20188;-72
2022/10/07 00:20:22;;;;;;;3.03;1.15;;;22.10;99.90;;;;;;4995291;28;20215;-73
2022/10/07 00:22:53;;;;;;;1.83;1.13;;;22.10;99.90;;;;;;4995058;28;20647;-75
2022/10/07 00:25:24;;;;;;;2.40;0.80;;;21.90;99.90;;;;;;4994652;28;20230;-75
2022/10/07 00:27:55;;;;;;;2.03;1.00;;;21.90;99.90;;;;;;4995358;28;20250;-75
2022/10/07 00:30:26;;;;;;;3.80;1.13;;;21.80;99.90;;;;;;4995032;28;20552;-75
2022/10/07 00:32:58;;;;;;;3.33;1.10;;;21.80;99.90;;;;;;4995276;28;20196;-75
2022/10/07 00:35:29;;;;;;;3.30;1.20;;;21.70;99.90;;;;;;4993917;28;20219;-75
2022/10/07 00:38:00;;;;;;;2.83;1.20;;;21.80;99.90;;;;;;4994522;28;20227;-73
2022/10/07 00:40:30;;;;;;;4.55;1.40;;;21.90;99.90;;;;;;4991314;28;20202;-75
2022/10/07 00:43:01;;;;;;;3.58;1.30;;;21.80;99.90;;;;;;4994854;28;20631;-74
2022/10/07 00:45:32;;;;;;;5.85;1.25;;;21.80;99.90;;;;;;4994782;28;20203;-75
2022/10/07 00:48:05;;;;;;;6.38;1.50;;;21.90;99.90;;;;;;4990766;28;20184;-73
2022/10/07 00:50:36;;;;;;;3.70;1.30;;;22.00;99.90;;;;;;4994772;28;20192;-74
2022/10/07 00:53:07;;;;;;;2.58;1.20;;;22.10;99.90;;;;;;4991621;28;20677;-74
2022/10/07 00:55:38;;;;;;;3.15;1.23;;;22.00;99.90;;;;;;4991455;28;20228;-75
2022/10/07 00:58:09;;;;;;;5.38;1.48;;;22.10;99.90;;;;;;4989072;28;20667;-75
2022/10/07 01:00:41;;;;;;;3.03;1.10;;;22.10;99.90;;;;;;4992482;28;20207;-74
2022/10/07 01:03:14;;;;;;;2.20;1.00;;;22.20;99.90;;;;;;4992544;28;20238;-75
2022/10/07 01:05:44;;;;;;;2.90;1.13;;;22.10;99.90;;;;;;4993830;28;20555;-75
2022/10/07 01:08:15;;;;;;;4.10;1.15;;;22.20;99.90;;;;;;4993750;28;20200;-75
2022/10/07 01:10:55;;;;;;;3.05;1.00;;;22.20;99.90;;;;;;4993565;28;20288;-75
2022/10/07 01:13:32;;;;;;;3.83;1.30;;;22.20;99.90;;;;;;4991603;28;20686;-75
2022/10/07 01:16:09;;;;;;;2.25;1.38;;;22.20;99.90;;;;;;4992786;28;20203;-76
2022/10/07 01:18:49;;;;;;;4.80;1.10;;;22.10;99.90;;;;;;4986727;28;20686;-75
2022/10/07 01:21:32;;;;;;;1.25;0.80;;;22.10;99.90;;;;;;4993582;28;20570;-75
2022/10/07 01:24:11;;;;;;;0.75;0.75;;;22.10;99.90;;;;;;4990345;28;20205;-76
2022/10/07 01:27:03;;;;;;;7.70;1.10;;;22.00;99.90;;;;;;4974819;28;20238;-75
2022/10/07 01:29:38;;;;;;;4.68;0.93;;;22.00;99.90;;;;;;4992616;28;20188;-73
2022/10/07 01:32:14;;;;;;;1.92;0.90;;;21.90;99.90;;;;;;4988237;28;20195;-73
2022/10/07 01:34:48;;;;;;;1.70;0.80;;;21.90;99.90;;;;;;4986396;28;20682;-73
2022/10/07 01:37:21;;;;;;;1.35;0.60;;;21.80;99.90;;;;;;4990963;28;20231;-75
2022/10/07 01:39:55;;;;;;;3.15;0.80;;;21.80;99.90;;;;;;4992161;28;20206;-74
2022/10/07 01:42:28;;;;;;;1.15;0.68;;;21.70;99.90;;;;;;4993431;28;20200;-75
2022/10/07 01:45:01;;;;;;;1.60;0.90;;;21.70;99.90;;;;;;4978937;28;20198;-75
2022/10/07 01:47:32;;;;;;;1.70;1.00;;;21.70;99.90;;;;;;4993369;28;20195;-75
2022/10/07 01:50:04;;;;;;;4.05;1.00;;;21.70;99.90;;;;;;4992275;28;20200;-75
2022/10/07 01:52:53;;;;;;;3.13;0.85;;;21.70;99.90;;;;;;4989797;28;20611;-75
2022/10/07 01:55:37;;;;;;;2.08;0.85;;;21.70;99.90;;;;;;4974253;28;20718;-73
2022/10/07 01:58:22;;;;;;;1.17;0.80;;;21.70;99.90;;;;;;4980646;28;20196;-73
2022/10/07 02:01:01;;;;;;;2.08;1.15;;;21.70;99.90;;;;;;4990071;28;20203;-73
2022/10/07 02:03:45;;;;;;;1.38;1.05;;;21.70;99.90;;;;;;4993142;28;20195;-75
2022/10/07 02:06:24;;;;;;;3.63;0.98;;;21.70;99.90;;;;;;4990334;28;20199;-75
2022/10/07 02:08:59;;;;;;;3.05;1.20;;;21.70;99.90;;;;;;4992111;28;20721;-76
2022/10/07 02:11:32;;;;;;;6.60;1.88;;;21.60;99.90;;;;;;4991846;28;20658;-75
2022/10/07 02:14:10;;;;;;;6.75;1.92;;;21.60;99.90;;;;;;4989388;28;20908;-75
2022/10/07 02:16:45;;;;;;;10.88;2.30;;;21.50;99.90;;;;;;4983719;28;20203;-75
2022/10/07 02:19:20;;;;;;;7.07;1.88;;;21.40;99.90;;;;;;4992483;28;20210;-75
2022/10/07 02:21:52;;;;;;;8.80;2.60;;;21.30;99.90;;;;;;4992929;28;20227;-75
2022/10/07 02:24:26;;;;;;;10.57;2.00;;;21.20;99.90;;;;;;4986069;28;20652;-74
2022/10/07 02:27:00;;;;;;;11.60;2.20;;;21.20;99.90;;;;;;4990251;28;20205;-74
2022/10/07 02:29:35;;;;;;;10.75;2.22;;;21.10;99.90;;;;;;4986203;28;20200;-75
2022/10/07 02:32:09;;;;;;;6.53;1.80;;;21.10;99.90;;;;;;4985818;28;20190;-75
2022/10/07 02:34:42;;;;;;;8.48;1.90;;;21.00;99.90;;;;;;4991108;28;20757;-75
2022/10/07 02:37:19;;;;;;;13.07;2.58;;;20.90;99.90;;;;;;4989967;28;20234;-74
2022/10/07 02:39:50;;;;;;;6.18;2.00;;;20.90;99.90;;;;;;4989452;28;20207;-74
2022/10/07 02:42:29;;;;;;;8.02;1.65;;;20.90;99.90;;;;;;4991336;28;20199;-75
2022/10/07 02:45:10;;;;;;;9.60;1.73;;;20.80;99.90;;;;;;4989895;28;20206;-75
2022/10/07 02:47:48;;;;;;;6.72;1.40;;;20.80;99.90;;;;;;4976560;28;20659;-75
2022/10/07 02:50:23;;;;;;;9.35;1.52;;;20.80;99.90;;;;;;4994571;28;20354;-75
2022/10/07 02:52:57;;;;;;;5.78;1.60;;;20.80;99.90;;;;;;4995286;28;20199;-76
2022/10/07 02:55:30;;;;;;;4.07;1.33;;;20.70;99.90;;;;;;4991017;28;20572;-77
2022/10/07 02:58:05;;;;;;;5.05;1.20;;;20.70;99.90;;;;;;4991201;28;20200;-74
2022/10/07 03:00:43;;;;;;;7.95;1.80;;;20.70;99.90;;;;;;4994144;28;20619;-75
2022/10/07 03:03:14;;;;;;;4.00;1.50;;;20.60;99.90;;;;;;4992209;28;20229;-72
2022/10/07 03:05:48;;;;;;;4.90;1.50;;;20.50;99.90;;;;;;4996112;28;20563;-73
2022/10/07 03:08:19;;;;;;;6.57;1.60;;;20.50;99.90;;;;;;4995230;28;20199;-73
2022/10/07 03:10:50;;;;;;;6.03;1.50;;;20.40;99.90;;;;;;4990208;28;20211;-73
2022/10/07 03:13:21;;;;;;;8.75;1.50;;;20.40;99.90;;;;;;4992964;28;20196;-73
2022/10/07 03:15:53;;;;;;;3.28;1.33;;;20.40;99.90;;;;;;4993339;28;20231;-73
2022/10/07 03:18:28;;;;;;;4.60;1.48;;;20.30;99.90;;;;;;4994690;28;20200;-74
2022/10/07 03:20:59;;;;;;;5.35;1.60;;;20.30;99.90;;;;;;4995351;28;20279;-76
2022/10/07 03:23:31;;;;;;;7.00;1.50;;;20.30;99.90;;;;;;4990170;28;20204;-75
2022/10/07 03:26:02;;;;;;;8.10;1.60;;;20.30;99.90;;;;;;4993541;28;20199;-74
2022/10/07 03:28:36;;;;;;;8.93;1.73;;;20.30;99.90;;;;;;4992607;28;20207;-74
2022/10/07 03:31:14;;;;;;;7.72;1.40;;;20.20;99.90;;;;;;4995600;28;20219;-74
2022/10/07 03:33:45;;;;;;;5.85;1.80;;;20.20;99.90;;;;;;4985269;28;20230;-75
2022/10/07 03:36:15;;;;;;;4.20;1.38;;;20.20;99.90;;;;;;4995235;28;20616;-75
2022/10/07 03:38:46;;;;;;;6.93;1.77;;;20.20;99.90;;;;;;4996189;28;20196;-75
2022/10/07 03:41:17;;;;;;;10.38;1.70;;;20.10;99.90;;;;;;4995950;28;20191;-75
2022/10/07 03:43:48;;;;;;;8.98;1.50;;;20.10;99.90;;;;;;4985636;28;20713;-76
2022/10/07 03:46:21;;;;;;;3.55;1.50;;;20.10;99.90;;;;;;4995736;28;20690;-75
2022/10/07 03:48:52;;;;;;;6.68;1.70;;;20.10;99.90;;;;;;4986102;28;20665;-75
2022/10/07 03:51:23;;;;;;;5.40;1.50;;;20.00;99.90;;;;;;4993122;28;20258;-75
2022/10/07 03:53:56;;;;;;;5.93;1.67;;;20.00;99.90;;;;;;4995491;28;20188;-73
2022/10/07 03:56:27;;;;;;;6.80;1.63;;;20.00;99.90;;;;;;4995855;28;20269;-74
2022/10/07 03:58:57;;;;;;;8.38;1.88;;;19.90;99.90;;;;;;4994523;28;20195;-76
2022/10/07 04:01:31;;;;;;;4.70;1.70;;;19.80;99.90;;;;;;4995635;28;20200;-73
2022/10/07 04:04:02;;;;;;;6.60;1.35;;;19.80;99.90;;;;;;4995603;28;20184;-72
2022/10/07 04:06:32;;;;;;;7.45;1.58;;;19.80;99.90;;;;;;4995278;28;20203;-74
2022/10/07 04:09:04;;;;;;;6.88;1.40;;;19.80;99.90;;;;;;4994715;28;20192;-75
2022/10/07 04:11:34;;;;;;;9.00;1.90;;;19.70;99.90;;;;;;4994948;28;20188;-73
2022/10/07 04:14:05;;;;;;;10.82;1.83;;;19.70;99.90;;;;;;4994957;28;20214;-75
2022/10/07 04:16:38;;;;;;;7.70;1.70;;;19.70;99.90;;;;;;4994858;28;20216;-74
2022/10/07 04:19:09;;;;;;;4.38;1.40;;;19.70;99.90;;;;;;4994487;28;20647;-74
2022/10/07 04:21:39;;;;;;;4.85;1.80;;;19.60;99.90;;;;;;4995226;28;20640;-74
2022/10/07 04:24:10;;;;;;;8.40;2.05;;;19.60;99.90;;;;;;4993860;28;20213;-75
2022/10/07 04:26:41;;;;;;;6.38;1.80;;;19.60;99.90;;;;;;4994485;28;20559;-73
2022/10/07 04:29:12;;;;;;;6.75;1.85;;;19.60;99.90;;;;;;4994219;28;20192;-74
2022/10/07 04:31:44;;;;;;;6.05;1.73;;;19.60;99.90;;;;;;4994963;28;20199;-74
2022/10/07 04:34:15;;;;;;;6.22;1.70;;;19.50;99.90;;;;;;4995022;28;20184;-73
2022/10/07 04:36:46;;;;;;;5.68;1.92;;;19.50;99.90;;;;;;4993939;28;20705;-73
2022/10/07 04:39:17;;;;;;;4.38;1.73;;;19.50;99.90;;;;;;4994934;28;20199;-73
2022/10/07 04:41:48;;;;;;;4.05;1.33;;;19.40;99.90;;;;;;4994641;28;20643;-73
2022/10/07 04:44:18;;;;;;;5.00;1.90;;;19.40;99.90;;;;;;4994647;28;20188;-73
2022/10/07 04:46:55;;;;;;;2.67;1.65;;;19.30;99.90;;;;;;4992233;28;20552;-73
2022/10/07 04:49:26;;;;;;;2.88;1.30;;;19.30;99.90;;;;;;4991824;28;20270;-73
2022/10/07 04:51:56;;;;;;;3.75;1.50;;;19.30;99.90;;;;;;4994145;28;20192;-74
2022/10/07 04:54:27;;;;;;;2.05;1.17;;;19.20;99.90;;;;;;4994220;28;20239;-72
2022/10/07 04:56:58;;;;;;;5.20;1.38;;;19.10;99.90;;;;;;4993650;28;20219;-72
2022/10/07 04:59:29;;;;;;;2.20;1.30;;;19.10;99.90;;;;;;4994577;28;20228;-72
2022/10/07 05:02:02;;;;;;;2.53;1.20;;;19.00;99.90;;;;;;4994107;28;20207;-72
2022/10/07 05:04:33;;;;;;;3.65;1.38;;;18.90;99.90;;;;;;4993974;28;20187;-72
2022/10/07 05:07:04;;;;;;;2.90;1.50;;;18.90;99.90;;;;;;4993856;28;20210;-72
2022/10/07 05:09:35;;;;;;;3.67;1.38;;;18.80;99.90;;;;;;4994076;28;20196;-71
2022/10/07 05:12:06;;;;;;;2.78;1.48;;;18.70;99.90;;;;;;4993419;28;20191;-72
2022/10/07 05:14:36;;;;;;;7.97;1.58;;;18.70;99.90;;;;;;4993916;28;20191;-71
2022/10/07 05:17:09;;;;;;;3.00;1.30;;;18.60;99.90;;;;;;4993592;28;20212;-72
2022/10/07 05:19:40;;;;;;;2.55;1.40;;;18.60;99.90;;;;;;4993919;28;20195;-71
2022/10/07 05:22:10;;;;;;;4.18;1.60;;;18.50;99.90;;;;;;4992863;28;20199;-71
2022/10/07 05:24:42;;;;;;;3.83;1.40;;;18.50;99.90;;;;;;4993197;28;20194;-72
2022/10/07 05:27:14;;;;;;;3.45;1.38;;;18.40;99.90;;;;;;4992845;28;20200;-71
2022/10/07 05:29:45;;;;;;;4.10;1.70;;;18.40;99.90;;;;;;4993311;28;20188;-71
2022/10/07 05:32:19;;;;;;;3.63;1.67;;;18.40;99.90;;;;;;4993697;28;20219;-71
2022/10/07 05:34:51;;;;;;;4.13;1.63;;;18.30;99.90;;;;;;4992737;28;20215;-71
2022/10/07 05:37:22;;;;;;;2.15;1.65;;;18.30;99.90;;;;;;4992534;28;20310;-71
2022/10/07 05:39:57;;;;;;;2.42;1.73;;;18.20;99.90;;;;;;4993109;28;20635;-71
2022/10/07 05:42:28;;;;;;;3.75;1.50;;;18.20;99.90;;;;;;4993499;28;20551;-70
2022/10/07 05:44:59;;;;;;;1.92;1.60;;;18.20;99.90;;;;;;4993040;28;20187;-72
2022/10/07 05:47:34;;;;;;;3.85;1.70;;;18.10;99.90;;;;;;4993765;28;20590;-72
2022/10/07 05:50:05;;;;;;;4.30;1.80;;;18.10;99.90;;;;;;4993172;28;20265;-72
2022/10/07 05:52:38;;;;;;;3.40;1.55;;;18.10;99.90;;;;;;4993471;28;20548;-71
2022/10/07 05:55:10;;;;;;;2.80;1.70;;;18.10;99.90;;;;;;4991456;28;20526;-71
2022/10/07 05:57:42;;;;;;;4.45;1.90;;;18.10;99.90;;;;;;4993216;28;20231;-72
2022/10/07 06:00:14;;;;;;;3.45;1.73;;;18.10;99.90;;;;;;4992573;28;20187;-72
2022/10/07 06:02:47;;;;;;;3.92;1.65;;;18.10;99.90;;;;;;4990576;28;20191;-72
2022/10/07 06:05:19;;;;;;;2.67;1.50;;;18.10;99.90;;;;;;4989581;28;20191;-72
2022/10/07 06:07:52;;;;;;;4.82;1.63;;;18.10;99.90;;;;;;4990835;28;20187;-71
2022/10/07 06:13:14;;;;;;;3.15;1.85;;;18.10;99.90;;;;;;4993493;28;20194;-71
2022/10/07 06:15:46;;;;;;;3.53;1.80;;;18.10;99.90;;;;;;4990545;28;20299;-72
2022/10/07 06:18:20;;;;;;;3.92;1.90;;;18.10;99.90;;;;;;4990090;28;20203;-72
2022/10/07 06:21:01;;;;;;;3.25;1.98;;;18.00;99.90;;;;;;4987480;28;20232;-72
2022/10/07 06:23:32;;;;;;;2.38;1.77;;;18.00;99.90;;;;;;4990563;28;20202;-72
2022/10/07 06:26:05;;;;;;;2.17;1.40;;;18.00;99.90;;;;;;4991103;28;20230;-72
2022/10/07 06:28:37;;;;;;;2.20;1.77;;;18.00;99.90;;;;;;4989320;28;20242;-72
2022/10/07 06:31:09;;;;;;;3.45;1.70;;;17.90;99.90;;;;;;4984887;28;20207;-72
2022/10/07 06:33:44;;;;;;;4.05;1.80;;;17.90;99.90;;;;;;4995396;28;21621;-72
2022/10/07 06:36:17;;;;;;;2.42;1.70;;;17.90;99.90;;;;;;4992265;28;20293;-72
2022/10/07 06:38:49;;;;;;;3.17;1.88;;;17.90;99.90;;;;;;4992738;28;20196;-72
2022/10/07 06:41:20;;;;;;;4.05;2.08;;;17.80;99.90;;;;;;4995478;28;20200;-72
2022/10/07 06:43:53;;;;;;;4.47;2.00;;;17.80;99.90;;;;;;4994791;28;20195;-72
2022/10/07 06:46:24;;;;;;;2.78;1.85;;;17.80;99.90;;;;;;4993832;28;20271;-72
2022/10/07 06:48:57;;;;;;;4.10;1.70;;;17.80;99.90;;;;;;4994350;28;20195;-72
2022/10/07 06:51:28;;;;;;;3.80;1.65;;;17.70;99.90;;;;;;4990422;28;20195;-72
2022/10/07 06:53:59;;;;;;;3.55;1.85;;;17.80;99.90;;;;;;4994049;28;20200;-72
2022/10/07 06:56:31;;;;;;;3.35;2.10;;;17.80;99.90;;;;;;4990566;28;20215;-72
2022/10/07 06:59:03;;;;;;;2.75;1.83;;;17.70;99.90;;;;;;4994319;28;20202;-72
2022/10/07 07:01:34;;;;;;;3.20;2.03;;;17.70;99.90;;;;;;4996524;28;20286;-72
2022/10/07 07:04:11;;;;;;;2.55;1.75;;;17.70;99.90;;;;;;4994042;28;20282;-72
2022/10/07 07:06:43;;;;;;;3.35;1.80;;;17.70;99.90;;;;;;4995151;28;20207;-72
2022/10/07 07:09:16;;;;;;;3.20;1.90;;;17.70;99.90;;;;;;4992116;28;20239;-72
2022/10/07 07:11:52;;;;;;;3.45;2.00;;;17.70;99.90;;;;;;4986526;28;20287;-72
2022/10/07 07:14:24;;;;;;;2.65;1.80;;;17.70;99.90;;;;;;4992111;28;20282;-72
2022/10/07 07:16:58;;;;;;;2.08;1.70;;;17.70;99.90;;;;;;4994439;28;20234;-72
2022/10/07 07:19:31;;;;;;;3.85;2.28;;;17.70;99.90;;;;;;4993495;28;20301;-72
2022/10/07 07:22:02;;;;;;;2.97;1.98;;;17.70;99.90;;;;;;4995708;28;20343;-72
2022/10/07 07:24:33;;;;;;;3.45;1.80;;;17.70;99.90;;;;;;4995831;28;20677;-73
2022/10/07 07:27:16;;;;;;;2.15;1.80;;;17.70;99.90;;;;;;4995307;28;20204;-72
2022/10/07 07:29:47;;;;;;;3.67;2.00;;;17.70;99.90;;;;;;4992139;28;20306;-73
2022/10/07 07:32:24;;;;;;;3.72;1.88;;;17.70;99.90;;;;;;4995135;28;20274;-73
2022/10/07 07:34:59;;;;;;;2.67;1.75;;;17.70;99.90;;;;;;4987310;28;20199;-71
2022/10/07 07:37:30;;;;;;;3.30;1.92;;;17.70;99.90;;;;;;4991811;28;20719;-72
2022/10/07 07:40:01;;;;;;;4.57;2.10;;;17.60;99.90;;;;;;4995540;28;20212;-72
2022/10/07 07:42:33;;;;;;;3.47;1.90;;;17.60;99.90;;;;;;4995588;28;20673;-72
2022/10/07 07:45:04;;;;;;;2.03;1.88;;;17.60;99.90;;;;;;4994547;28;20266;-72
2022/10/07 07:47:35;;;;;;;3.97;1.77;;;17.60;99.90;;;;;;4993697;28;20204;-73
2022/10/07 07:50:11;;;;;;;2.40;1.75;;;17.60;99.90;;;;;;4995254;28;20705;-72
2022/10/07 07:52:43;;;;;;;3.53;1.90;;;17.50;99.90;;;;;;4995404;28;20195;-72
2022/10/07 07:55:16;;;;;;;2.17;1.90;;;17.50;99.90;;;;;;4994933;28;20206;-73
2022/10/07 07:57:47;;;;;;;2.20;1.90;;;17.50;99.90;;;;;;4993183;28;20583;-73
2022/10/07 08:00:18;;;;;;;3.25;1.98;;;17.40;99.90;;;;;;4995355;28;20195;-72
2022/10/07 08:02:49;;;;;;;3.55;1.80;;;17.40;99.90;;;;;;4993063;28;20219;-73
2022/10/07 08:05:22;;;;;;;2.60;1.70;;;17.40;99.90;;;;;;4992531;28;20202;-73
2022/10/07 08:07:54;;;;;;;4.93;2.25;;;17.40;99.90;;;;;;4989739;28;20377;-72
2022/10/07 08:10:26;;;;;;;3.47;2.00;;;17.40;99.90;;;;;;4995347;28;20200;-73
2022/10/07 08:12:57;;;;;;;3.67;1.95;;;17.40;99.90;;;;;;4992280;28;20210;-72
2022/10/07 08:15:28;;;;;;;3.13;2.10;;;17.40;99.90;;;;;;4993217;28;20659;-72
2022/10/07 08:17:59;;;;;;;4.43;2.10;;;17.40;99.90;;;;;;4992931;28;20231;-72
2022/10/07 08:20:32;;;;;;;3.35;2.15;;;17.40;99.90;;;;;;4993357;28;20570;-73
2022/10/07 08:23:03;;;;;;;3.75;2.15;;;17.40;99.90;;;;;;4991956;28;20200;-73
2022/10/07 08:25:34;;;;;;;3.72;2.10;;;17.40;99.90;;;;;;4993270;28;20748;-73
2022/10/07 08:28:05;;;;;;;2.95;2.22;;;17.40;99.90;;;;;;4991718;28;20204;-72
2022/10/07 08:30:36;;;;;;;3.88;2.28;;;17.40;99.90;;;;;;4995600;28;20200;-72
2022/10/07 08:33:07;;;;;;;3.53;2.47;;;17.40;99.90;;;;;;4991067;28;20217;-72
2022/10/07 08:35:40;;;;;;;3.22;2.25;;;17.40;99.90;;;;;;4988400;28;20227;-73
2022/10/07 08:38:12;;;;;;;2.55;2.13;;;17.40;99.90;;;;;;4986945;28;20244;-73
2022/10/07 08:40:50;;;;;;;3.03;2.30;;;17.40;99.90;;;;;;4992509;28;20215;-73
2022/10/07 08:43:23;;;;;;;3.15;2.40;;;17.40;99.90;;;;;;4990918;28;20200;-73
2022/10/07 08:45:56;;;;;;;3.40;2.55;;;17.40;99.90;;;;;;4994108;28;20660;-73
2022/10/07 08:48:32;;;;;;;3.67;2.40;;;17.40;99.90;;;;;;4993275;28;20196;-73
2022/10/07 08:51:15;;;;;;;3.28;2.50;;;17.40;99.90;;;;;;4995193;28;20191;-73
2022/10/07 08:53:46;;;;;;;4.47;2.88;;;17.40;99.90;;;;;;4993909;28;20202;-73
2022/10/07 08:56:19;;;;;;;4.50;2.67;;;17.40;99.90;;;;;;4992724;28;20215;-73
2022/10/07 08:59:09;;;;;;;5.35;2.67;;;17.40;99.90;;;;;;4993121;28;20213;-74
2022/10/07 09:01:52;;;;;;;3.20;2.45;;;17.40;99.90;;;;;;4990688;28;20196;-74
2022/10/07 09:04:36;;;;;;;3.88;2.67;;;17.40;99.90;;;;;;4992913;28;20208;-74
2022/10/07 09:07:15;;;;;;;4.82;2.50;;;17.30;99.90;;;;;;4992607;28;20204;-74
2022/10/07 09:09:55;;;;;;;5.30;2.63;;;17.30;99.90;;;;;;4992615;28;20204;-74
2022/10/07 09:12:32;;;;;;;3.38;2.50;;;17.30;99.90;;;;;;4975602;28;20195;-74
2022/10/07 09:15:18;;;;;;;3.20;2.53;;;17.30;99.90;;;;;;4987421;28;20278;-74
2022/10/07 09:17:58;;;;;;;3.25;2.58;;;17.30;99.90;;;;;;4988945;28;20227;-73
2022/10/07 09:20:34;;;;;;;4.65;2.88;;;17.30;99.90;;;;;;4988647;28;20203;-74
2022/10/07 09:23:09;;;;;;;5.65;2.78;;;17.30;99.90;;;;;;4993684;28;20206;-74
2022/10/07 09:25:40;;;;;;;5.78;2.50;;;17.30;99.90;;;;;;4992585;28;20276;-74
2022/10/07 09:28:15;;;;;;;4.18;2.88;;;17.30;99.90;;;;;;4990451;28;20211;-74
2022/10/07 09:30:46;;;;;;;3.13;2.50;;;17.30;99.90;;;;;;4990322;28;20566;-74
2022/10/07 09:33:20;;;;;;;4.55;2.80;;;17.30;99.90;;;;;;4991913;28;20191;-74
2022/10/07 09:35:55;;;;;;;4.20;2.63;;;17.30;99.90;;;;;;4993791;28;20687;-74
2022/10/07 09:38:38;;;;;;;3.63;2.80;;;17.30;99.90;;;;;;4989544;28;20234;-74
2022/10/07 09:41:21;;;;;;;2.97;2.67;;;17.30;99.90;;;;;;4988204;28;20211;-75
2022/10/07 09:44:07;;;;;;;3.42;2.70;;;17.30;99.90;;;;;;4993221;28;20203;-74
2022/10/07 09:46:50;;;;;;;3.75;2.55;;;17.20;99.90;;;;;;4991285;28;20203;-74
2022/10/07 09:49:39;;;;;;;4.13;2.90;;;17.20;99.90;;;;;;4991980;28;20343;-74
2022/10/07 09:52:19;;;;;;;2.95;2.20;;;17.20;99.90;;;;;;4993370;28;20207;-74
2022/10/07 09:54:54;;;;;;;3.45;2.50;;;17.20;99.90;;;;;;4990539;28;20210;-74
2022/10/07 09:57:35;;;;;;;4.35;2.60;;;17.20;99.90;;;;;;4993814;28;20721;-75
2022/10/07 10:00:24;;;;;;;4.13;2.47;;;17.20;99.90;;;;;;4992301;28;20286;-74
2022/10/07 10:02:59;;;;;;;3.50;2.42;;;17.20;99.90;;;;;;4991845;28;20200;-73
2022/10/07 10:05:33;;;;;;;2.30;2.10;;;17.20;99.90;;;;;;4992058;28;20195;-74
2022/10/07 10:08:05;;;;;;;3.35;2.03;;;17.10;99.90;;;;;;4994274;28;20187;-74
2022/10/07 10:10:39;;;;;;;2.53;2.20;;;17.10;99.90;;;;;;4990249;28;20225;-74
2022/10/07 10:13:24;;;;;;;3.85;2.42;;;17.10;99.90;;;;;;4988750;28;20199;-75
2022/10/07 10:15:54;;;;;;;3.47;2.30;;;17.10;99.90;;;;;;4992283;28;20195;-75
2022/10/07 10:18:37;;;;;;;3.72;2.70;;;17.10;99.90;;;;;;4993787;28;20229;-75
2022/10/07 10:21:20;;;;;;;3.92;2.50;;;17.10;99.90;;;;;;4990958;28;20195;-73
2022/10/07 10:23:53;;;;;;;3.63;2.60;;;17.10;99.90;;;;;;4989093;28;20227;-74
2022/10/07 10:26:58;;;;;;;2.92;2.45;;;17.10;99.90;;;;;;4993986;28;20212;-75
2022/10/07 10:29:43;;;;;;;2.78;2.55;;;17.10;99.90;;;;;;4932754;29;20201;-75
2022/10/07 10:32:47;;;;;;;4.20;2.88;;;17.10;99.90;;;;;;4982702;28;20210;-75
2022/10/07 10:35:22;;;;;;;3.35;2.88;;;17.10;99.90;;;;;;4979442;28;20215;-75
2022/10/07 10:38:18;;;;;;;5.85;3.30;;;17.10;99.90;;;;;;4993461;28;20242;-74
2022/10/07 10:40:57;;;;;;;3.95;2.85;;;17.10;99.90;;;;;;4992582;28;20671;-74
2022/10/07 10:43:39;;;;;;;5.03;3.15;;;17.10;99.90;;;;;;4989117;28;20206;-74
2022/10/07 10:46:40;;;;;;;4.13;3.00;;;17.10;99.90;;;;;;4992698;28;20204;-74
2022/10/07 10:49:24;;;;;;;4.35;3.10;;;17.10;99.90;;;;;;4993181;28;20199;-73
2022/10/07 10:52:16;;;;;;;4.85;3.10;;;17.10;99.90;;;;;;4990768;28;20203;-74
2022/10/07 10:55:06;;;;;;;3.47;3.10;;;17.10;99.90;;;;;;4985052;28;20203;-74
2022/10/07 10:57:49;;;;;;;3.55;3.22;;;17.10;99.90;;;;;;4991389;28;20219;-74
2022/10/07 11:00:23;;;;;;;4.30;3.13;;;17.10;99.90;;;;;;4990974;28;20211;-74
2022/10/07 11:03:28;;;;;;;4.15;3.17;;;17.10;99.90;;;;;;4990857;28;20204;-74
2022/10/07 11:05:59;;;;;;;3.80;3.35;;;17.10;99.90;;;;;;4993414;28;20188;-74
2022/10/07 11:08:33;;;;;;;3.75;3.13;;;17.10;99.90;;;;;;4997018;28;20198;-75
2022/10/07 11:11:08;;;;;;;5.72;3.13;;;17.10;99.90;;;;;;4996837;28;20199;-74
2022/10/07 11:13:45;;;;;;;3.80;3.40;;;17.10;99.90;;;;;;4995195;28;20196;-74
2022/10/07 11:16:23;;;;;;;3.35;2.63;;;17.10;99.90;;;;;;4996868;28;20246;-74
2022/10/07 11:18:57;;;;;;;3.60;2.85;;;17.10;99.90;;;;;;4996736;28;20712;-74
2022/10/07 11:21:32;;;;;;;3.83;2.78;;;17.10;99.90;;;;;;4993773;28;20195;-74
2022/10/07 11:24:05;;;;;;;3.42;3.13;;;17.10;99.90;;;;;;4992622;28;20207;-74
2022/10/07 11:26:40;;;;;;;4.32;3.53;;;17.10;99.90;;;;;;4977226;28;20601;-74
2022/10/07 11:29:22;;;;;;;4.10;3.10;;;17.10;99.90;;;;;;4994460;28;20191;-75
2022/10/07 11:32:00;;;;;;;4.93;3.15;;;17.10;99.90;;;;;;4993272;28;20558;-74
2022/10/07 11:34:41;;;;;;;3.35;3.05;;;17.10;99.90;;;;;;4983944;28;20213;-74
2022/10/07 11:37:18;;;;;;;5.18;3.20;;;17.10;99.90;;;;;;4985948;28;20255;-74
2022/10/07 11:39:55;;;;;;;3.25;2.53;;;17.10;99.90;;;;;;4989993;28;20697;-74
2022/10/07 11:42:28;;;;;;;3.20;2.58;;;17.10;99.90;;;;;;4993121;28;20687;-74
2022/10/07 11:45:07;;;;;;;3.63;2.80;;;17.10;99.90;;;;;;4994422;28;20196;-74
2022/10/07 11:47:43;;;;;;;3.92;2.53;;;17.10;99.90;;;;;;4995263;28;20199;-74
2022/10/07 11:50:18;;;;;;;4.07;3.08;;;17.10;99.90;;;;;;4994136;28;20203;-74
2022/10/07 11:52:51;;;;;;;4.75;2.88;;;17.10;99.90;;;;;;4995372;28;20196;-74
2022/10/07 11:55:26;;;;;;;3.28;2.72;;;17.10;99.90;;;;;;4992420;28;20199;-74
2022/10/07 11:57:58;;;;;;;2.70;2.50;;;17.10;99.90;;;;;;4985222;28;20230;-74
2022/10/07 12:00:32;;;;;;;2.70;2.10;;;17.10;99.90;;;;;;4986226;28;20206;-75
2022/10/07 12:03:15;;;;;;;3.40;2.72;;;17.10;99.90;;;;;;4989083;28;20295;-74
2022/10/07 12:06:10;;;;;;;3.58;2.65;;;17.10;99.90;;;;;;4987561;28;20196;-74
2022/10/07 12:08:43;;;;;;;3.28;2.45;;;17.10;99.90;;;;;;4995294;28;20227;-74
2022/10/07 12:11:49;;;;;;;3.38;2.58;;;17.10;99.90;;;;;;4989341;28;20218;-74
2022/10/07 12:14:35;;;;;;;2.22;2.03;;;17.10;99.90;;;;;;4986658;28;20295;-74
2022/10/07 12:17:29;;;;;;;2.95;2.53;;;17.10;99.90;;;;;;4993319;28;20242;-75
2022/10/07 12:20:34;;;;;;;2.42;2.22;;;17.10;99.90;;;;;;4993411;28;20308;-74
2022/10/07 12:23:42;;;;;;;2.47;2.28;;;17.10;99.90;;;;;;4977011;28;20210;-74
2022/10/07 12:26:53;;;;;;;4.28;2.10;;;17.10;99.90;;;;;;4985300;28;20196;-74
2022/10/07 12:29:48;;;;;;;2.20;2.00;;;17.10;99.90;;;;;;4987700;28;20191;-74
2022/10/07 12:32:46;;;;;;;2.40;1.90;;;17.10;99.90;;;;;;4990391;28;20203;-74
2022/10/07 12:36:03;;;;;;;3.22;2.40;;;17.10;99.90;;;;;;4988208;28;20227;-73
2022/10/07 12:38:41;;;;;;;4.57;2.08;;;17.10;99.90;;;;;;4968838;28;20259;-74
2022/10/07 12:41:50;;;;;;;2.65;2.10;;;17.10;99.90;;;;;;4984398;28;20203;-74
2022/10/07 12:44:33;;;;;;;3.13;2.10;;;17.10;99.90;;;;;;4971421;28;20207;-75
2022/10/07 12:47:14;;;;;;;2.10;1.90;;;17.10;99.90;;;;;;4991436;28;20206;-74
2022/10/07 12:49:50;;;;;;;2.17;1.98;;;17.10;99.90;;;;;;4983217;28;20235;-74
2022/10/07 12:52:50;;;;;;;2.20;2.00;;;17.10;99.90;;;;;;4987959;28;20218;-74
2022/10/07 12:55:26;;;;;;;2.45;1.90;;;17.10;99.90;;;;;;4984932;28;20204;-73
2022/10/07 13:01:05;;;;;;;2.90;1.75;;;17.20;99.90;;;;;;4981318;28;20196;-75
2022/10/07 13:04:09;;;;;;;2.17;1.75;;;17.20;99.90;;;;;;4997148;28;20195;-74
2022/10/07 13:07:29;;;;;;;1.70;1.60;;;17.20;99.90;;;;;;4991652;28;20295;-74
2022/10/07 13:10:42;;;;;;;2.55;1.90;;;17.10;99.90;;;;;;4897304;29;20686;-74
2022/10/07 13:13:22;;;;;;;2.40;1.67;;;17.20;99.90;;;;;;4969404;28;20253;-73
2022/10/07 13:15:57;;;;;;;3.28;1.45;;;17.20;99.90;;;;;;4957939;28;20204;-73
2022/10/07 13:18:48;;;;;;;1.75;1.40;;;17.20;99.90;;;;;;4988122;28;20231;-73
2022/10/07 13:21:29;;;;;;;1.85;1.60;;;17.20;99.90;;;;;;4992131;28;20208;-74
2022/10/07 13:24:06;;;;;;;1.77;1.67;;;17.20;99.90;;;;;;4982111;28;20244;-74
2022/10/07 13:26:41;;;;;;;1.55;1.33;;;17.20;99.90;;;;;;4989200;28;20294;-74
2022/10/07 13:29:25;;;;;;;1.75;1.60;;;17.20;99.90;;;;;;4989939;28;20561;-74
2022/10/07 13:32:11;;;;;;;2.90;1.50;;;17.20;99.90;;;;;;4978844;28;20214;-74
2022/10/07 13:34:45;;;;;;;1.92;1.60;;;17.20;99.90;;;;;;4982381;28;20214;-74
2022/10/07 13:37:33;;;;;;;2.47;1.50;;;17.20;99.90;;;;;;4991582;28;20318;-74